sensor_id;sensor_type;location;lat;lon;timestamp;P1;durP1;ratioP1;P2;durP2;ratioP2
70270;SDS011;57680;54.292;18.598;2022-10-19T00:01:32;4.70;;;1.10;;
70270;SDS011;57680;54.292;18.598;2022-10-19T00:04:00;9.55;;;1.23;;
70270;SDS011;57680;54.292;18.598;2022-10-19T00:06:28;8.70;;;1.10;;
70270;SDS011;57680;54.292;18.598;2022-10-19T00:09:00;5.68;;;0.80;;
70270;SDS011;57680;54.292;18.598;2022-10-19T00:11:31;7.73;;;0.97;;
70270;SDS011;57680;54.292;18.598;2022-10-19T00:13:58;4.88;;;0.80;;
70270;SDS011;57680;54.292;18.598;2022-10-19T00:16:26;8.20;;;0.90;;
70270;SDS011;57680;54.292;18.598;2022-10-19T00:18:57;6.82;;;0.82;;
70270;SDS011;57680;54.292;18.598;2022-10-19T00:21:24;5.80;;;0.88;;
70270;SDS011;57680;54.292;18.598;2022-10-19T00:23:50;3.37;;;0.80;;
70270;SDS011;57680;54.292;18.598;2022-10-19T00:26:16;4.53;;;1.02;;
70270;SDS011;57680;54.292;18.598;2022-10-19T00:28:42;4.67;;;0.77;;
70270;SDS011;57680;54.292;18.598;2022-10-19T00:31:09;4.55;;;0.85;;
70270;SDS011;57680;54.292;18.598;2022-10-19T00:33:36;4.38;;;1.02;;
70270;SDS011;57680;54.292;18.598;2022-10-19T00:36:02;6.45;;;0.93;;
70270;SDS011;57680;54.292;18.598;2022-10-19T00:38:28;4.73;;;0.80;;
70270;SDS011;57680;54.292;18.598;2022-10-19T00:40:54;8.25;;;1.45;;
70270;SDS011;57680;54.292;18.598;2022-10-19T00:43:24;6.37;;;1.00;;
70270;SDS011;57680;54.292;18.598;2022-10-19T00:45:51;5.63;;;1.00;;
70270;SDS011;57680;54.292;18.598;2022-10-19T00:48:34;6.53;;;1.10;;
70270;SDS011;57680;54.292;18.598;2022-10-19T00:51:00;3.47;;;0.77;;
70270;SDS011;57680;54.292;18.598;2022-10-19T00:53:26;6.03;;;0.80;;
70270;SDS011;57680;54.292;18.598;2022-10-19T00:55:53;4.93;;;0.95;;
70270;SDS011;57680;54.292;18.598;2022-10-19T00:58:21;5.03;;;1.15;;
70270;SDS011;57680;54.292;18.598;2022-10-19T01:00:46;8.33;;;1.43;;
70270;SDS011;57680;54.292;18.598;2022-10-19T01:03:12;5.03;;;0.90;;
70270;SDS011;57680;54.292;18.598;2022-10-19T01:05:38;4.57;;;0.97;;
70270;SDS011;57680;54.292;18.598;2022-10-19T01:08:05;5.03;;;0.80;;
70270;SDS011;57680;54.292;18.598;2022-10-19T01:11:17;6.82;;;1.15;;
70270;SDS011;57680;54.292;18.598;2022-10-19T01:16:21;4.72;;;1.10;;
70270;SDS011;57680;54.292;18.598;2022-10-19T01:19:04;5.40;;;0.63;;
70270;SDS011;57680;54.292;18.598;2022-10-19T01:21:49;5.78;;;0.90;;
70270;SDS011;57680;54.292;18.598;2022-10-19T01:32:52;4.18;;;0.55;;
70270;SDS011;57680;54.292;18.598;2022-10-19T01:40:54;4.70;;;0.70;;
70270;SDS011;57680;54.292;18.598;2022-10-19T01:46:05;4.40;;;0.70;;
70270;SDS011;57680;54.292;18.598;2022-10-19T01:48:37;8.20;;;1.25;;
70270;SDS011;57680;54.292;18.598;2022-10-19T01:51:12;4.25;;;0.80;;
70270;SDS011;57680;54.292;18.598;2022-10-19T01:53:43;4.17;;;0.80;;
70270;SDS011;57680;54.292;18.598;2022-10-19T01:56:11;4.03;;;1.00;;
70270;SDS011;57680;54.292;18.598;2022-10-19T01:58:40;4.57;;;0.65;;
70270;SDS011;57680;54.292;18.598;2022-10-19T02:01:08;5.25;;;0.65;;
70270;SDS011;57680;54.292;18.598;2022-10-19T02:03:36;4.30;;;0.70;;
70270;SDS011;57680;54.292;18.598;2022-10-19T02:06:04;2.87;;;0.60;;
70270;SDS011;57680;54.292;18.598;2022-10-19T02:08:37;5.32;;;1.13;;
70270;SDS011;57680;54.292;18.598;2022-10-19T02:11:15;3.45;;;0.75;;
70270;SDS011;57680;54.292;18.598;2022-10-19T02:13:41;4.93;;;0.68;;
70270;SDS011;57680;54.292;18.598;2022-10-19T02:16:13;5.13;;;0.63;;
70270;SDS011;57680;54.292;18.598;2022-10-19T02:18:44;4.23;;;0.70;;
70270;SDS011;57680;54.292;18.598;2022-10-19T02:21:13;2.15;;;0.50;;
70270;SDS011;57680;54.292;18.598;2022-10-19T02:23:39;3.92;;;0.55;;
70270;SDS011;57680;54.292;18.598;2022-10-19T02:26:05;4.18;;;0.60;;
70270;SDS011;57680;54.292;18.598;2022-10-19T02:28:31;1.90;;;0.30;;
70270;SDS011;57680;54.292;18.598;2022-10-19T02:30:57;4.70;;;0.75;;
70270;SDS011;57680;54.292;18.598;2022-10-19T02:33:23;2.80;;;0.60;;
70270;SDS011;57680;54.292;18.598;2022-10-19T02:35:49;2.45;;;0.70;;
70270;SDS011;57680;54.292;18.598;2022-10-19T02:38:15;4.93;;;0.60;;
70270;SDS011;57680;54.292;18.598;2022-10-19T02:40:59;2.22;;;0.50;;
70270;SDS011;57680;54.292;18.598;2022-10-19T02:43:33;4.15;;;0.77;;
70270;SDS011;57680;54.292;18.598;2022-10-19T02:46:07;4.38;;;0.60;;
70270;SDS011;57680;54.292;18.598;2022-10-19T02:48:38;5.53;;;0.60;;
70270;SDS011;57680;54.292;18.598;2022-10-19T02:51:05;4.40;;;0.70;;
70270;SDS011;57680;54.292;18.598;2022-10-19T02:53:31;5.45;;;0.82;;
70270;SDS011;57680;54.292;18.598;2022-10-19T02:55:57;7.30;;;0.77;;
70270;SDS011;57680;54.292;18.598;2022-10-19T02:58:22;5.53;;;0.90;;
70270;SDS011;57680;54.292;18.598;2022-10-19T03:00:48;4.78;;;0.85;;
70270;SDS011;57680;54.292;18.598;2022-10-19T03:03:13;7.37;;;1.53;;
70270;SDS011;57680;54.292;18.598;2022-10-19T03:05:39;6.05;;;1.17;;
70270;SDS011;57680;54.292;18.598;2022-10-19T03:08:04;4.50;;;1.17;;
70270;SDS011;57680;54.292;18.598;2022-10-19T03:10:30;6.00;;;1.00;;
70270;SDS011;57680;54.292;18.598;2022-10-19T03:12:56;3.50;;;0.90;;
70270;SDS011;57680;54.292;18.598;2022-10-19T03:15:22;7.63;;;0.93;;
70270;SDS011;57680;54.292;18.598;2022-10-19T03:17:54;5.05;;;0.95;;
70270;SDS011;57680;54.292;18.598;2022-10-19T03:20:20;4.32;;;0.90;;
70270;SDS011;57680;54.292;18.598;2022-10-19T03:22:46;3.70;;;0.97;;
70270;SDS011;57680;54.292;18.598;2022-10-19T03:25:11;5.10;;;0.93;;
70270;SDS011;57680;54.292;18.598;2022-10-19T03:27:37;5.83;;;1.00;;
70270;SDS011;57680;54.292;18.598;2022-10-19T03:30:03;2.55;;;0.90;;
70270;SDS011;57680;54.292;18.598;2022-10-19T03:32:28;4.10;;;0.77;;
70270;SDS011;57680;54.292;18.598;2022-10-19T03:34:54;3.57;;;1.40;;
70270;SDS011;57680;54.292;18.598;2022-10-19T03:37:19;4.50;;;0.70;;
70270;SDS011;57680;54.292;18.598;2022-10-19T03:39:45;3.73;;;0.87;;
70270;SDS011;57680;54.292;18.598;2022-10-19T03:42:10;5.17;;;1.00;;
70270;SDS011;57680;54.292;18.598;2022-10-19T03:44:36;3.95;;;0.70;;
70270;SDS011;57680;54.292;18.598;2022-10-19T03:47:02;1.93;;;0.60;;
70270;SDS011;57680;54.292;18.598;2022-10-19T03:49:27;3.53;;;0.80;;
70270;SDS011;57680;54.292;18.598;2022-10-19T03:51:53;2.03;;;0.63;;
70270;SDS011;57680;54.292;18.598;2022-10-19T03:54:18;4.80;;;0.73;;
70270;SDS011;57680;54.292;18.598;2022-10-19T03:56:44;2.80;;;0.50;;
70270;SDS011;57680;54.292;18.598;2022-10-19T03:59:11;5.83;;;1.13;;
70270;SDS011;57680;54.292;18.598;2022-10-19T04:01:39;3.05;;;0.82;;
70270;SDS011;57680;54.292;18.598;2022-10-19T04:04:09;2.92;;;0.50;;
70270;SDS011;57680;54.292;18.598;2022-10-19T04:06:38;2.85;;;0.60;;
70270;SDS011;57680;54.292;18.598;2022-10-19T04:09:05;3.30;;;0.63;;
70270;SDS011;57680;54.292;18.598;2022-10-19T04:11:32;4.07;;;1.00;;
70270;SDS011;57680;54.292;18.598;2022-10-19T04:13:58;10.52;;;2.40;;
70270;SDS011;57680;54.292;18.598;2022-10-19T04:16:25;2.28;;;0.70;;
70270;SDS011;57680;54.292;18.598;2022-10-19T04:18:52;1.27;;;0.40;;
70270;SDS011;57680;54.292;18.598;2022-10-19T04:21:25;1.70;;;0.47;;
70270;SDS011;57680;54.292;18.598;2022-10-19T04:23:57;5.45;;;0.80;;
70270;SDS011;57680;54.292;18.598;2022-10-19T04:26:25;2.13;;;0.50;;
70270;SDS011;57680;54.292;18.598;2022-10-19T04:28:51;3.33;;;0.50;;
70270;SDS011;57680;54.292;18.598;2022-10-19T04:31:17;4.13;;;0.60;;
70270;SDS011;57680;54.292;18.598;2022-10-19T04:33:42;1.47;;;0.60;;
70270;SDS011;57680;54.292;18.598;2022-10-19T04:36:09;6.00;;;0.87;;
70270;SDS011;57680;54.292;18.598;2022-10-19T04:38:36;3.13;;;0.50;;
70270;SDS011;57680;54.292;18.598;2022-10-19T04:41:09;2.92;;;0.60;;
70270;SDS011;57680;54.292;18.598;2022-10-19T04:43:37;1.80;;;0.50;;
70270;SDS011;57680;54.292;18.598;2022-10-19T04:46:04;1.60;;;0.60;;
70270;SDS011;57680;54.292;18.598;2022-10-19T04:48:30;4.38;;;1.10;;
70270;SDS011;57680;54.292;18.598;2022-10-19T04:50:56;5.53;;;1.33;;
70270;SDS011;57680;54.292;18.598;2022-10-19T04:53:21;2.03;;;0.50;;
70270;SDS011;57680;54.292;18.598;2022-10-19T04:55:48;2.35;;;0.80;;
70270;SDS011;57680;54.292;18.598;2022-10-19T04:58:14;4.00;;;1.00;;
70270;SDS011;57680;54.292;18.598;2022-10-19T05:00:39;4.73;;;1.20;;
70270;SDS011;57680;54.292;18.598;2022-10-19T05:03:05;6.13;;;1.37;;
70270;SDS011;57680;54.292;18.598;2022-10-19T05:05:31;4.05;;;1.00;;
70270;SDS011;57680;54.292;18.598;2022-10-19T05:07:57;2.97;;;0.53;;
70270;SDS011;57680;54.292;18.598;2022-10-19T05:10:23;2.40;;;0.40;;
70270;SDS011;57680;54.292;18.598;2022-10-19T05:12:48;2.60;;;0.60;;
70270;SDS011;57680;54.292;18.598;2022-10-19T05:15:14;5.43;;;0.70;;
70270;SDS011;57680;54.292;18.598;2022-10-19T05:17:39;4.33;;;1.27;;
70270;SDS011;57680;54.292;18.598;2022-10-19T05:20:05;5.85;;;1.50;;
70270;SDS011;57680;54.292;18.598;2022-10-19T05:22:31;5.83;;;1.60;;
70270;SDS011;57680;54.292;18.598;2022-10-19T05:24:57;4.68;;;1.38;;
70270;SDS011;57680;54.292;18.598;2022-10-19T05:27:23;5.63;;;1.93;;
70270;SDS011;57680;54.292;18.598;2022-10-19T05:29:48;4.43;;;1.80;;
70270;SDS011;57680;54.292;18.598;2022-10-19T05:32:14;4.00;;;1.45;;
70270;SDS011;57680;54.292;18.598;2022-10-19T05:34:39;2.40;;;0.90;;
70270;SDS011;57680;54.292;18.598;2022-10-19T05:37:05;3.88;;;0.93;;
70270;SDS011;57680;54.292;18.598;2022-10-19T05:39:34;2.60;;;0.80;;
70270;SDS011;57680;54.292;18.598;2022-10-19T05:42:03;2.25;;;0.80;;
70270;SDS011;57680;54.292;18.598;2022-10-19T05:44:28;5.77;;;1.37;;
70270;SDS011;57680;54.292;18.598;2022-10-19T05:46:54;5.60;;;1.70;;
70270;SDS011;57680;54.292;18.598;2022-10-19T05:49:20;4.27;;;0.97;;
70270;SDS011;57680;54.292;18.598;2022-10-19T05:51:47;2.50;;;1.00;;
70270;SDS011;57680;54.292;18.598;2022-10-19T05:54:13;3.47;;;0.93;;
70270;SDS011;57680;54.292;18.598;2022-10-19T05:56:40;4.65;;;0.90;;
70270;SDS011;57680;54.292;18.598;2022-10-19T05:59:07;5.80;;;1.58;;
70270;SDS011;57680;54.292;18.598;2022-10-19T06:01:37;5.20;;;1.73;;
70270;SDS011;57680;54.292;18.598;2022-10-19T06:04:03;4.75;;;1.55;;
70270;SDS011;57680;54.292;18.598;2022-10-19T06:06:30;4.40;;;1.40;;
70270;SDS011;57680;54.292;18.598;2022-10-19T06:08:56;3.27;;;0.90;;
70270;SDS011;57680;54.292;18.598;2022-10-19T06:11:32;5.07;;;1.20;;
70270;SDS011;57680;54.292;18.598;2022-10-19T06:14:01;5.53;;;1.30;;
70270;SDS011;57680;54.292;18.598;2022-10-19T06:16:29;2.90;;;0.93;;
70270;SDS011;57680;54.292;18.598;2022-10-19T06:18:56;4.65;;;1.00;;
70270;SDS011;57680;54.292;18.598;2022-10-19T06:21:22;4.20;;;1.30;;
70270;SDS011;57680;54.292;18.598;2022-10-19T06:24:03;5.35;;;1.20;;
70270;SDS011;57680;54.292;18.598;2022-10-19T06:26:31;6.10;;;1.30;;
70270;SDS011;57680;54.292;18.598;2022-10-19T06:28:58;3.80;;;1.30;;
70270;SDS011;57680;54.292;18.598;2022-10-19T06:31:25;4.25;;;1.35;;
70270;SDS011;57680;54.292;18.598;2022-10-19T06:33:52;4.70;;;1.40;;
70270;SDS011;57680;54.292;18.598;2022-10-19T06:36:19;3.67;;;0.90;;
70270;SDS011;57680;54.292;18.598;2022-10-19T06:38:46;4.07;;;0.90;;
70270;SDS011;57680;54.292;18.598;2022-10-19T06:41:12;5.28;;;1.90;;
70270;SDS011;57680;54.292;18.598;2022-10-19T06:43:38;4.43;;;1.30;;
70270;SDS011;57680;54.292;18.598;2022-10-19T06:46:13;3.07;;;1.30;;
70270;SDS011;57680;54.292;18.598;2022-10-19T06:48:48;4.63;;;1.30;;
70270;SDS011;57680;54.292;18.598;2022-10-19T06:51:24;4.20;;;1.63;;
70270;SDS011;57680;54.292;18.598;2022-10-19T06:53:51;6.82;;;1.50;;
70270;SDS011;57680;54.292;18.598;2022-10-19T07:03:05;4.15;;;1.25;;
70270;SDS011;57680;54.292;18.598;2022-10-19T07:05:30;3.77;;;0.97;;
70270;SDS011;57680;54.292;18.598;2022-10-19T07:07:56;4.20;;;1.00;;
70270;SDS011;57680;54.292;18.598;2022-10-19T07:10:22;3.10;;;0.77;;
70270;SDS011;57680;54.292;18.598;2022-10-19T07:12:48;3.43;;;0.93;;
70270;SDS011;57680;54.292;18.598;2022-10-19T07:15:14;5.05;;;1.20;;
70270;SDS011;57680;54.292;18.598;2022-10-19T07:17:40;1.90;;;0.57;;
70270;SDS011;57680;54.292;18.598;2022-10-19T07:20:05;3.50;;;0.83;;
70270;SDS011;57680;54.292;18.598;2022-10-19T07:22:31;4.47;;;0.73;;
70270;SDS011;57680;54.292;18.598;2022-10-19T07:24:57;3.47;;;0.82;;
70270;SDS011;57680;54.292;18.598;2022-10-19T07:27:23;4.07;;;1.10;;
70270;SDS011;57680;54.292;18.598;2022-10-19T07:29:48;1.95;;;0.90;;
70270;SDS011;57680;54.292;18.598;2022-10-19T07:32:14;3.40;;;0.80;;
70270;SDS011;57680;54.292;18.598;2022-10-19T07:34:40;3.90;;;1.55;;
70270;SDS011;57680;54.292;18.598;2022-10-19T07:37:05;4.60;;;1.07;;
70270;SDS011;57680;54.292;18.598;2022-10-19T07:39:31;3.70;;;1.20;;
70270;SDS011;57680;54.292;18.598;2022-10-19T07:41:56;3.87;;;0.87;;
70270;SDS011;57680;54.292;18.598;2022-10-19T07:44:22;5.37;;;1.57;;
70270;SDS011;57680;54.292;18.598;2022-10-19T07:46:48;5.30;;;1.27;;
70270;SDS011;57680;54.292;18.598;2022-10-19T07:49:14;6.53;;;0.93;;
70270;SDS011;57680;54.292;18.598;2022-10-19T07:51:40;4.22;;;0.95;;
70270;SDS011;57680;54.292;18.598;2022-10-19T07:54:06;2.17;;;0.50;;
70270;SDS011;57680;54.292;18.598;2022-10-19T07:56:32;3.38;;;0.65;;
70270;SDS011;57680;54.292;18.598;2022-10-19T07:58:58;5.72;;;2.17;;
70270;SDS011;57680;54.292;18.598;2022-10-19T08:01:25;1.50;;;0.47;;
70270;SDS011;57680;54.292;18.598;2022-10-19T08:03:54;6.17;;;0.90;;
70270;SDS011;57680;54.292;18.598;2022-10-19T08:06:21;2.45;;;0.50;;
70270;SDS011;57680;54.292;18.598;2022-10-19T08:08:48;1.60;;;0.60;;
70270;SDS011;57680;54.292;18.598;2022-10-19T08:11:16;2.10;;;0.88;;
70270;SDS011;57680;54.292;18.598;2022-10-19T08:13:43;4.10;;;0.90;;
70270;SDS011;57680;54.292;18.598;2022-10-19T08:16:19;2.87;;;0.90;;
70270;SDS011;57680;54.292;18.598;2022-10-19T08:18:47;3.92;;;0.70;;
70270;SDS011;57680;54.292;18.598;2022-10-19T08:21:14;2.25;;;0.50;;
70270;SDS011;57680;54.292;18.598;2022-10-19T08:23:39;4.07;;;0.80;;
70270;SDS011;57680;54.292;18.598;2022-10-19T08:26:05;4.23;;;0.80;;
70270;SDS011;57680;54.292;18.598;2022-10-19T08:28:31;2.45;;;0.40;;
70270;SDS011;57680;54.292;18.598;2022-10-19T08:30:56;4.73;;;0.67;;
70270;SDS011;57680;54.292;18.598;2022-10-19T08:33:23;2.38;;;0.52;;
70270;SDS011;57680;54.292;18.598;2022-10-19T08:35:50;2.70;;;0.40;;
70270;SDS011;57680;54.292;18.598;2022-10-19T08:38:18;3.33;;;0.70;;
70270;SDS011;57680;54.292;18.598;2022-10-19T08:40:44;4.55;;;0.63;;
70270;SDS011;57680;54.292;18.598;2022-10-19T08:43:58;4.18;;;0.85;;
70270;SDS011;57680;54.292;18.598;2022-10-19T08:48:37;4.03;;;1.25;;
70270;SDS011;57680;54.292;18.598;2022-10-19T08:51:07;4.60;;;0.80;;
70270;SDS011;57680;54.292;18.598;2022-10-19T08:53:39;2.75;;;0.90;;
70270;SDS011;57680;54.292;18.598;2022-10-19T08:58:58;2.72;;;0.77;;
70270;SDS011;57680;54.292;18.598;2022-10-19T09:04:53;1.73;;;0.40;;
70270;SDS011;57680;54.292;18.598;2022-10-19T09:07:32;1.58;;;0.45;;
70270;SDS011;57680;54.292;18.598;2022-10-19T09:15:27;1.35;;;0.30;;
70270;SDS011;57680;54.292;18.598;2022-10-19T09:18:20;3.17;;;0.50;;
70270;SDS011;57680;54.292;18.598;2022-10-19T09:20:59;2.90;;;0.60;;
70270;SDS011;57680;54.292;18.598;2022-10-19T09:23:29;3.10;;;0.77;;
70270;SDS011;57680;54.292;18.598;2022-10-19T09:26:17;2.25;;;0.43;;
70270;SDS011;57680;54.292;18.598;2022-10-19T09:31:26;2.83;;;0.50;;
70270;SDS011;57680;54.292;18.598;2022-10-19T09:33:57;1.80;;;0.63;;
70270;SDS011;57680;54.292;18.598;2022-10-19T09:36:32;1.63;;;0.60;;
70270;SDS011;57680;54.292;18.598;2022-10-19T09:39:08;1.27;;;0.40;;
70270;SDS011;57680;54.292;18.598;2022-10-19T09:41:36;2.65;;;0.93;;
70270;SDS011;57680;54.292;18.598;2022-10-19T09:44:10;1.27;;;0.40;;
70270;SDS011;57680;54.292;18.598;2022-10-19T09:46:49;2.63;;;0.60;;
70270;SDS011;57680;54.292;18.598;2022-10-19T09:49:17;4.55;;;0.50;;
70270;SDS011;57680;54.292;18.598;2022-10-19T09:51:52;1.83;;;0.57;;
70270;SDS011;57680;54.292;18.598;2022-10-19T09:54:35;2.28;;;0.80;;
70270;SDS011;57680;54.292;18.598;2022-10-19T09:57:03;1.70;;;0.40;;
70270;SDS011;57680;54.292;18.598;2022-10-19T09:59:34;2.03;;;0.60;;
70270;SDS011;57680;54.292;18.598;2022-10-19T10:02:17;2.00;;;0.40;;
70270;SDS011;57680;54.292;18.598;2022-10-19T10:04:48;2.27;;;0.30;;
70270;SDS011;57680;54.292;18.598;2022-10-19T10:07:19;0.73;;;0.30;;
70270;SDS011;57680;54.292;18.598;2022-10-19T10:09:48;2.35;;;0.32;;
70270;SDS011;57680;54.292;18.598;2022-10-19T10:12:16;2.92;;;0.50;;
70270;SDS011;57680;54.292;18.598;2022-10-19T10:14:42;2.53;;;0.50;;
70270;SDS011;57680;54.292;18.598;2022-10-19T10:17:15;3.15;;;0.68;;
70270;SDS011;57680;54.292;18.598;2022-10-19T10:20:01;3.20;;;0.50;;
70270;SDS011;57680;54.292;18.598;2022-10-19T10:22:33;1.45;;;0.50;;
70270;SDS011;57680;54.292;18.598;2022-10-19T10:25:00;2.38;;;0.70;;
70270;SDS011;57680;54.292;18.598;2022-10-19T10:27:36;2.47;;;0.43;;
70270;SDS011;57680;54.292;18.598;2022-10-19T10:30:07;1.85;;;0.50;;
70270;SDS011;57680;54.292;18.598;2022-10-19T10:32:42;1.60;;;0.60;;
70270;SDS011;57680;54.292;18.598;2022-10-19T10:35:17;1.30;;;0.30;;
70270;SDS011;57680;54.292;18.598;2022-10-19T10:37:44;2.13;;;0.40;;
70270;SDS011;57680;54.292;18.598;2022-10-19T10:40:25;1.83;;;0.70;;
70270;SDS011;57680;54.292;18.598;2022-10-19T10:42:55;2.63;;;0.60;;
70270;SDS011;57680;54.292;18.598;2022-10-19T10:47:55;1.08;;;0.40;;
70270;SDS011;57680;54.292;18.598;2022-10-19T10:50:24;2.53;;;0.60;;
70270;SDS011;57680;54.292;18.598;2022-10-19T10:52:58;1.93;;;0.53;;
70270;SDS011;57680;54.292;18.598;2022-10-19T10:55:29;2.53;;;0.70;;
70270;SDS011;57680;54.292;18.598;2022-10-19T10:58:33;5.10;;;0.90;;
70270;SDS011;57680;54.292;18.598;2022-10-19T11:01:11;3.03;;;0.60;;
70270;SDS011;57680;54.292;18.598;2022-10-19T11:03:45;4.80;;;0.90;;
70270;SDS011;57680;54.292;18.598;2022-10-19T11:06:15;2.93;;;0.70;;
70270;SDS011;57680;54.292;18.598;2022-10-19T11:08:45;3.15;;;0.50;;
70270;SDS011;57680;54.292;18.598;2022-10-19T11:11:34;2.67;;;0.60;;
70270;SDS011;57680;54.292;18.598;2022-10-19T11:17:11;2.08;;;0.60;;
70270;SDS011;57680;54.292;18.598;2022-10-19T11:19:59;2.23;;;0.30;;
70270;SDS011;57680;54.292;18.598;2022-10-19T11:22:26;3.33;;;0.80;;
70270;SDS011;57680;54.292;18.598;2022-10-19T11:30:27;1.10;;;0.30;;
70270;SDS011;57680;54.292;18.598;2022-10-19T11:47:12;1.50;;;0.50;;
70270;SDS011;57680;54.292;18.598;2022-10-19T11:55:27;2.83;;;0.60;;
70270;SDS011;57680;54.292;18.598;2022-10-19T12:00:51;1.40;;;0.50;;
70270;SDS011;57680;54.292;18.598;2022-10-19T12:06:02;1.77;;;0.35;;
70270;SDS011;57680;54.292;18.598;2022-10-19T12:14:02;2.30;;;0.70;;
70270;SDS011;57680;54.292;18.598;2022-10-19T12:16:34;2.03;;;0.68;;
70270;SDS011;57680;54.292;18.598;2022-10-19T12:19:08;2.90;;;0.75;;
70270;SDS011;57680;54.292;18.598;2022-10-19T12:21:40;1.50;;;0.50;;
70270;SDS011;57680;54.292;18.598;2022-10-19T12:24:11;4.00;;;0.90;;
70270;SDS011;57680;54.292;18.598;2022-10-19T12:26:40;1.67;;;0.57;;
70270;SDS011;57680;54.292;18.598;2022-10-19T12:29:12;2.50;;;0.30;;
70270;SDS011;57680;54.292;18.598;2022-10-19T12:31:43;1.50;;;0.40;;
70270;SDS011;57680;54.292;18.598;2022-10-19T12:37:05;3.45;;;0.63;;
70270;SDS011;57680;54.292;18.598;2022-10-19T12:42:40;2.25;;;0.35;;
70270;SDS011;57680;54.292;18.598;2022-10-19T12:53:24;2.83;;;0.82;;
70270;SDS011;57680;54.292;18.598;2022-10-19T12:58:30;1.25;;;0.50;;
70270;SDS011;57680;54.292;18.598;2022-10-19T13:04:08;2.15;;;0.35;;
70270;SDS011;57680;54.292;18.598;2022-10-19T13:06:35;5.35;;;1.20;;
70270;SDS011;57680;54.292;18.598;2022-10-19T13:09:05;3.03;;;0.70;;
70270;SDS011;57680;54.292;18.598;2022-10-19T13:11:33;2.85;;;0.75;;
70270;SDS011;57680;54.292;18.598;2022-10-19T13:16:43;2.10;;;0.60;;
70270;SDS011;57680;54.292;18.598;2022-10-19T13:19:21;1.40;;;0.40;;
70270;SDS011;57680;54.292;18.598;2022-10-19T13:21:49;2.47;;;0.30;;
70270;SDS011;57680;54.292;18.598;2022-10-19T13:24:38;3.00;;;0.53;;
70270;SDS011;57680;54.292;18.598;2022-10-19T13:40:36;3.22;;;0.75;;
70270;SDS011;57680;54.292;18.598;2022-10-19T13:43:14;1.90;;;0.40;;
70270;SDS011;57680;54.292;18.598;2022-10-19T13:45:42;2.40;;;0.30;;
70270;SDS011;57680;54.292;18.598;2022-10-19T13:48:16;3.13;;;0.50;;
70270;SDS011;57680;54.292;18.598;2022-10-19T13:50:51;2.70;;;0.52;;
70270;SDS011;57680;54.292;18.598;2022-10-19T13:53:34;1.52;;;0.50;;
70270;SDS011;57680;54.292;18.598;2022-10-19T13:56:15;3.80;;;0.70;;
70270;SDS011;57680;54.292;18.598;2022-10-19T13:58:52;2.63;;;0.50;;
70270;SDS011;57680;54.292;18.598;2022-10-19T14:07:27;18.60;;;6.35;;
70270;SDS011;57680;54.292;18.598;2022-10-19T14:10:07;7.13;;;3.13;;
70270;SDS011;57680;54.292;18.598;2022-10-19T14:12:39;4.07;;;1.77;;
70270;SDS011;57680;54.292;18.598;2022-10-19T14:17:46;3.05;;;0.80;;
70270;SDS011;57680;54.292;18.598;2022-10-19T14:20:31;3.57;;;0.90;;
70270;SDS011;57680;54.292;18.598;2022-10-19T14:25:52;2.65;;;0.70;;
70270;SDS011;57680;54.292;18.598;2022-10-19T14:28:21;2.40;;;0.60;;
70270;SDS011;57680;54.292;18.598;2022-10-19T14:31:01;3.28;;;0.73;;
70270;SDS011;57680;54.292;18.598;2022-10-19T14:33:30;4.97;;;0.93;;
70270;SDS011;57680;54.292;18.598;2022-10-19T14:36:04;2.07;;;0.60;;
70270;SDS011;57680;54.292;18.598;2022-10-19T14:38:35;3.22;;;0.50;;
70270;SDS011;57680;54.292;18.598;2022-10-19T14:41:04;3.00;;;0.50;;
70270;SDS011;57680;54.292;18.598;2022-10-19T14:43:41;3.38;;;0.50;;
70270;SDS011;57680;54.292;18.598;2022-10-19T14:48:33;5.78;;;1.00;;
70270;SDS011;57680;54.292;18.598;2022-10-19T14:51:02;2.92;;;0.88;;
70270;SDS011;57680;54.292;18.598;2022-10-19T14:53:35;5.23;;;0.97;;
70270;SDS011;57680;54.292;18.598;2022-10-19T15:01:22;7.50;;;2.60;;
70270;SDS011;57680;54.292;18.598;2022-10-19T15:03:48;4.23;;;0.80;;
70270;SDS011;57680;54.292;18.598;2022-10-19T15:06:22;5.20;;;1.40;;
70270;SDS011;57680;54.292;18.598;2022-10-19T15:08:55;6.35;;;1.70;;
70270;SDS011;57680;54.292;18.598;2022-10-19T15:11:32;7.10;;;2.28;;
70270;SDS011;57680;54.292;18.598;2022-10-19T15:14:05;9.90;;;2.90;;
70270;SDS011;57680;54.292;18.598;2022-10-19T15:16:39;8.03;;;2.30;;
70270;SDS011;57680;54.292;18.598;2022-10-19T15:19:26;4.85;;;1.85;;
70270;SDS011;57680;54.292;18.598;2022-10-19T15:22:14;6.30;;;1.67;;
70270;SDS011;57680;54.292;18.598;2022-10-19T15:27:41;5.47;;;1.27;;
70270;SDS011;57680;54.292;18.598;2022-10-19T15:35:32;7.63;;;1.70;;
70270;SDS011;57680;54.292;18.598;2022-10-19T15:38:03;6.53;;;2.25;;
70270;SDS011;57680;54.292;18.598;2022-10-19T15:40:33;6.38;;;1.70;;
70270;SDS011;57680;54.292;18.598;2022-10-19T15:43:22;7.30;;;1.73;;
70270;SDS011;57680;54.292;18.598;2022-10-19T15:46:00;4.28;;;1.42;;
70270;SDS011;57680;54.292;18.598;2022-10-19T15:48:42;6.95;;;2.15;;
70270;SDS011;57680;54.292;18.598;2022-10-19T15:53:51;5.88;;;1.23;;
70270;SDS011;57680;54.292;18.598;2022-10-19T15:56:23;6.67;;;1.80;;
70270;SDS011;57680;54.292;18.598;2022-10-19T15:58:51;6.95;;;2.00;;
70270;SDS011;57680;54.292;18.598;2022-10-19T16:01:25;4.88;;;1.63;;
70270;SDS011;57680;54.292;18.598;2022-10-19T16:33:18;7.32;;;2.08;;
70270;SDS011;57680;54.292;18.598;2022-10-19T16:35:43;6.30;;;1.80;;
70270;SDS011;57680;54.292;18.598;2022-10-19T16:38:09;7.87;;;2.50;;
70270;SDS011;57680;54.292;18.598;2022-10-19T16:40:35;6.50;;;2.20;;
70270;SDS011;57680;54.292;18.598;2022-10-19T16:43:00;8.33;;;3.20;;
70270;SDS011;57680;54.292;18.598;2022-10-19T16:45:26;10.00;;;3.85;;
70270;SDS011;57680;54.292;18.598;2022-10-19T16:47:52;10.23;;;3.40;;
70270;SDS011;57680;54.292;18.598;2022-10-19T16:50:18;9.77;;;3.03;;
70270;SDS011;57680;54.292;18.598;2022-10-19T16:52:44;7.05;;;2.20;;
70270;SDS011;57680;54.292;18.598;2022-10-19T16:55:09;14.90;;;4.83;;
70270;SDS011;57680;54.292;18.598;2022-10-19T16:57:35;9.63;;;3.42;;
70270;SDS011;57680;54.292;18.598;2022-10-19T17:00:01;10.37;;;3.10;;
70270;SDS011;57680;54.292;18.598;2022-10-19T17:02:28;7.75;;;2.40;;
70270;SDS011;57680;54.292;18.598;2022-10-19T17:04:54;5.87;;;1.57;;
70270;SDS011;57680;54.292;18.598;2022-10-19T17:07:19;5.22;;;1.90;;
70270;SDS011;57680;54.292;18.598;2022-10-19T17:09:45;6.60;;;2.00;;
70270;SDS011;57680;54.292;18.598;2022-10-19T17:12:10;9.15;;;2.60;;
70270;SDS011;57680;54.292;18.598;2022-10-19T17:14:37;7.70;;;2.90;;
70270;SDS011;57680;54.292;18.598;2022-10-19T17:17:04;7.95;;;3.10;;
70270;SDS011;57680;54.292;18.598;2022-10-19T17:19:30;11.88;;;3.63;;
70270;SDS011;57680;54.292;18.598;2022-10-19T17:21:56;11.05;;;2.80;;
70270;SDS011;57680;54.292;18.598;2022-10-19T17:24:23;10.27;;;3.10;;
70270;SDS011;57680;54.292;18.598;2022-10-19T17:26:50;10.10;;;2.30;;
70270;SDS011;57680;54.292;18.598;2022-10-19T17:29:16;7.10;;;2.13;;
70270;SDS011;57680;54.292;18.598;2022-10-19T17:31:42;7.15;;;1.80;;
70270;SDS011;57680;54.292;18.598;2022-10-19T17:34:08;19.47;;;4.20;;
70270;SDS011;57680;54.292;18.598;2022-10-19T17:36:35;22.95;;;5.53;;
70270;SDS011;57680;54.292;18.598;2022-10-19T17:39:04;8.80;;;2.60;;
70270;SDS011;57680;54.292;18.598;2022-10-19T17:41:31;10.00;;;2.60;;
70270;SDS011;57680;54.292;18.598;2022-10-19T17:43:57;7.03;;;2.53;;
70270;SDS011;57680;54.292;18.598;2022-10-19T17:46:26;8.17;;;2.70;;
70270;SDS011;57680;54.292;18.598;2022-10-19T17:48:54;9.95;;;2.92;;